sensor_id;sensor_type;location;lat;lon;timestamp;temperature;humidity
12434;DHT22;6281;49.038;8.372;2023-01-15T00:01:21;11.20;99.90
12434;DHT22;6281;49.038;8.372;2023-01-15T00:03:49;11.10;99.90
12434;DHT22;6281;49.038;8.372;2023-01-15T00:06:17;11.20;99.90
12434;DHT22;6281;49.038;8.372;2023-01-15T00:08:47;11.20;99.90
12434;DHT22;6281;49.038;8.372;2023-01-15T00:11:23;11.30;99.90
12434;DHT22;6281;49.038;8.372;2023-01-15T00:13:55;11.30;99.90
12434;DHT22;6281;49.038;8.372;2023-01-15T00:16:25;11.30;99.90
12434;DHT22;6281;49.038;8.372;2023-01-15T00:18:54;11.30;99.90
12434;DHT22;6281;49.038;8.372;2023-01-15T00:21:22;11.20;99.90
12434;DHT22;6281;49.038;8.372;2023-01-15T00:23:49;11.30;99.90
12434;DHT22;6281;49.038;8.372;2023-01-15T00:26:34;11.30;99.90
12434;DHT22;6281;49.038;8.372;2023-01-15T00:29:20;11.50;99.90
12434;DHT22;6281;49.038;8.372;2023-01-15T00:31:54;11.50;99.90
12434;DHT22;6281;49.038;8.372;2023-01-15T00:34:22;11.40;99.90
12434;DHT22;6281;49.038;8.372;2023-01-15T00:36:49;11.30;99.90
12434;DHT22;6281;49.038;8.372;2023-01-15T00:39:17;11.40;99.90
12434;DHT22;6281;49.038;8.372;2023-01-15T00:41:44;11.40;99.90
12434;DHT22;6281;49.038;8.372;2023-01-15T00:44:11;11.40;99.90
12434;DHT22;6281;49.038;8.372;2023-01-15T00:46:37;11.40;99.90
12434;DHT22;6281;49.038;8.372;2023-01-15T00:49:06;11.50;99.90
12434;DHT22;6281;49.038;8.372;2023-01-15T00:51:34;11.40;99.90
12434;DHT22;6281;49.038;8.372;2023-01-15T00:54:01;11.50;99.90
12434;DHT22;6281;49.038;8.372;2023-01-15T00:56:28;11.40;99.90
12434;DHT22;6281;49.038;8.372;2023-01-15T00:58:55;11.40;99.90
12434;DHT22;6281;49.038;8.372;2023-01-15T01:01:22;11.30;99.90
12434;DHT22;6281;49.038;8.372;2023-01-15T01:03:50;11.10;99.90
12434;DHT22;6281;49.038;8.372;2023-01-15T01:06:19;11.00;99.90
12434;DHT22;6281;49.038;8.372;2023-01-15T01:08:56;10.80;99.90
12434;DHT22;6281;49.038;8.372;2023-01-15T01:11:53;10.80;99.90
12434;DHT22;6281;49.038;8.372;2023-01-15T01:14:21;10.80;99.90
12434;DHT22;6281;49.038;8.372;2023-01-15T01:16:48;10.90;99.90
12434;DHT22;6281;49.038;8.372;2023-01-15T01:19:20;10.80;99.90
12434;DHT22;6281;49.038;8.372;2023-01-15T01:21:49;11.00;99.90
12434;DHT22;6281;49.038;8.372;2023-01-15T01:24:19;11.10;99.90
12434;DHT22;6281;49.038;8.372;2023-01-15T01:26:46;10.70;99.90
12434;DHT22;6281;49.038;8.372;2023-01-15T01:29:15;10.80;99.90
12434;DHT22;6281;49.038;8.372;2023-01-15T01:31:42;10.80;99.90
12434;DHT22;6281;49.038;8.372;2023-01-15T01:34:10;10.80;99.90
12434;DHT22;6281;49.038;8.372;2023-01-15T01:36:45;10.70;99.90
12434;DHT22;6281;49.038;8.372;2023-01-15T01:39:17;10.70;99.90
12434;DHT22;6281;49.038;8.372;2023-01-15T01:41:48;10.70;99.90
12434;DHT22;6281;49.038;8.372;2023-01-15T01:44:58;10.70;99.90
12434;DHT22;6281;49.038;8.372;2023-01-15T01:47:27;10.70;99.90
12434;DHT22;6281;49.038;8.372;2023-01-15T01:49:58;10.90;99.90
12434;DHT22;6281;49.038;8.372;2023-01-15T01:52:28;10.80;99.90
12434;DHT22;6281;49.038;8.372;2023-01-15T01:54:58;10.80;99.90
12434;DHT22;6281;49.038;8.372;2023-01-15T01:57:26;10.90;99.90
12434;DHT22;6281;49.038;8.372;2023-01-15T01:59:53;10.80;99.90
12434;DHT22;6281;49.038;8.372;2023-01-15T02:02:21;10.80;99.90
12434;DHT22;6281;49.038;8.372;2023-01-15T02:04:48;10.80;99.90
12434;DHT22;6281;49.038;8.372;2023-01-15T02:07:16;10.90;99.90
12434;DHT22;6281;49.038;8.372;2023-01-15T02:09:43;11.00;99.90
12434;DHT22;6281;49.038;8.372;2023-01-15T02:12:18;11.00;99.90
12434;DHT22;6281;49.038;8.372;2023-01-15T02:14:54;11.10;99.90
12434;DHT22;6281;49.038;8.372;2023-01-15T02:17:30;11.00;99.90
12434;DHT22;6281;49.038;8.372;2023-01-15T02:20:09;11.10;99.90
12434;DHT22;6281;49.038;8.372;2023-01-15T02:22:53;11.00;99.90
12434;DHT22;6281;49.038;8.372;2023-01-15T02:25:31;10.90;99.90
12434;DHT22;6281;49.038;8.372;2023-01-15T02:28:04;11.00;99.90
12434;DHT22;6281;49.038;8.372;2023-01-15T02:30:37;11.10;99.90
12434;DHT22;6281;49.038;8.372;2023-01-15T02:33:09;10.90;99.90
12434;DHT22;6281;49.038;8.372;2023-01-15T02:35:42;10.80;99.90
12434;DHT22;6281;49.038;8.372;2023-01-15T02:38:12;11.20;99.90
12434;DHT22;6281;49.038;8.372;2023-01-15T02:40:42;11.10;99.90
12434;DHT22;6281;49.038;8.372;2023-01-15T02:43:13;10.90;99.90
12434;DHT22;6281;49.038;8.372;2023-01-15T02:45:43;11.00;99.90
12434;DHT22;6281;49.038;8.372;2023-01-15T02:48:14;11.10;99.90
12434;DHT22;6281;49.038;8.372;2023-01-15T02:50:45;11.00;99.90
12434;DHT22;6281;49.038;8.372;2023-01-15T02:53:17;11.10;99.90
12434;DHT22;6281;49.038;8.372;2023-01-15T02:55:47;11.20;99.90
12434;DHT22;6281;49.038;8.372;2023-01-15T02:58:20;11.20;99.90
12434;DHT22;6281;49.038;8.372;2023-01-15T03:00:51;11.20;99.90
12434;DHT22;6281;49.038;8.372;2023-01-15T03:03:23;11.40;99.90
12434;DHT22;6281;49.038;8.372;2023-01-15T03:05:56;11.40;99.90
12434;DHT22;6281;49.038;8.372;2023-01-15T03:08:25;11.50;99.90
12434;DHT22;6281;49.038;8.372;2023-01-15T03:10:59;11.60;99.90
12434;DHT22;6281;49.038;8.372;2023-01-15T03:13:39;11.40;99.90
12434;DHT22;6281;49.038;8.372;2023-01-15T03:16:13;11.60;99.90
12434;DHT22;6281;49.038;8.372;2023-01-15T03:19:06;11.60;99.90
12434;DHT22;6281;49.038;8.372;2023-01-15T03:21:43;11.50;99.90
12434;DHT22;6281;49.038;8.372;2023-01-15T03:24:15;11.40;99.90
12434;DHT22;6281;49.038;8.372;2023-01-15T03:26:44;11.60;99.90
12434;DHT22;6281;49.038;8.372;2023-01-15T03:29:12;11.60;99.90
12434;DHT22;6281;49.038;8.372;2023-01-15T03:31:40;11.60;99.90
12434;DHT22;6281;49.038;8.372;2023-01-15T03:34:09;11.60;99.90
12434;DHT22;6281;49.038;8.372;2023-01-15T03:36:36;11.60;99.90
12434;DHT22;6281;49.038;8.372;2023-01-15T03:39:04;11.50;99.90
12434;DHT22;6281;49.038;8.372;2023-01-15T03:41:43;11.40;99.90
12434;DHT22;6281;49.038;8.372;2023-01-15T03:44:20;11.20;99.90
12434;DHT22;6281;49.038;8.372;2023-01-15T03:46:59;11.00;99.90
12434;DHT22;6281;49.038;8.372;2023-01-15T03:49:37;10.70;99.90
12434;DHT22;6281;49.038;8.372;2023-01-15T03:52:13;10.50;99.90
12434;DHT22;6281;49.038;8.372;2023-01-15T03:54:47;10.30;99.90
12434;DHT22;6281;49.038;8.372;2023-01-15T03:57:22;10.10;99.90
12434;DHT22;6281;49.038;8.372;2023-01-15T03:59:55;9.80;99.90
12434;DHT22;6281;49.038;8.372;2023-01-15T04:02:24;9.70;99.90
12434;DHT22;6281;49.038;8.372;2023-01-15T04:05:16;9.60;99.90
12434;DHT22;6281;49.038;8.372;2023-01-15T04:07:45;9.50;99.90
12434;DHT22;6281;49.038;8.372;2023-01-15T04:10:12;9.40;99.90
12434;DHT22;6281;49.038;8.372;2023-01-15T04:12:39;9.40;99.90
12434;DHT22;6281;49.038;8.372;2023-01-15T04:15:10;9.30;99.90
12434;DHT22;6281;49.038;8.372;2023-01-15T04:17:37;9.20;99.90
12434;DHT22;6281;49.038;8.372;2023-01-15T04:20:05;9.20;99.90
12434;DHT22;6281;49.038;8.372;2023-01-15T04:22:32;9.10;99.90
12434;DHT22;6281;49.038;8.372;2023-01-15T04:25:00;9.00;99.90
12434;DHT22;6281;49.038;8.372;2023-01-15T04:27:27;9.00;99.90
12434;DHT22;6281;49.038;8.372;2023-01-15T04:29:54;8.90;99.90
12434;DHT22;6281;49.038;8.372;2023-01-15T04:32:22;8.90;99.90
12434;DHT22;6281;49.038;8.372;2023-01-15T04:34:49;8.90;99.90
12434;DHT22;6281;49.038;8.372;2023-01-15T04:37:18;8.80;99.90
12434;DHT22;6281;49.038;8.372;2023-01-15T04:39:46;8.70;99.90
12434;DHT22;6281;49.038;8.372;2023-01-15T04:42:13;8.70;99.90
12434;DHT22;6281;49.038;8.372;2023-01-15T04:44:58;8.70;99.90
12434;DHT22;6281;49.038;8.372;2023-01-15T04:47:29;8.60;99.90
12434;DHT22;6281;49.038;8.372;2023-01-15T04:49:56;8.60;99.90
12434;DHT22;6281;49.038;8.372;2023-01-15T04:52:23;8.60;99.90
12434;DHT22;6281;49.038;8.372;2023-01-15T04:54:50;8.60;99.90
12434;DHT22;6281;49.038;8.372;2023-01-15T04:57:17;8.60;99.90
12434;DHT22;6281;49.038;8.372;2023-01-15T04:59:43;8.50;99.90
12434;DHT22;6281;49.038;8.372;2023-01-15T05:02:10;8.60;99.90
12434;DHT22;6281;49.038;8.372;2023-01-15T05:04:39;8.40;99.90
12434;DHT22;6281;49.038;8.372;2023-01-15T05:07:06;8.40;99.90
12434;DHT22;6281;49.038;8.372;2023-01-15T05:09:33;8.40;99.90
12434;DHT22;6281;49.038;8.372;2023-01-15T05:12:00;8.40;99.90
12434;DHT22;6281;49.038;8.372;2023-01-15T05:14:27;8.40;99.90
12434;DHT22;6281;49.038;8.372;2023-01-15T05:16:53;8.40;99.90
12434;DHT22;6281;49.038;8.372;2023-01-15T05:19:20;8.40;99.90
12434;DHT22;6281;49.038;8.372;2023-01-15T05:21:48;8.30;99.90
12434;DHT22;6281;49.038;8.372;2023-01-15T05:24:16;8.30;99.90
12434;DHT22;6281;49.038;8.372;2023-01-15T05:26:44;8.20;99.90
12434;DHT22;6281;49.038;8.372;2023-01-15T05:29:11;8.10;99.90
12434;DHT22;6281;49.038;8.372;2023-01-15T05:31:39;8.20;99.90
12434;DHT22;6281;49.038;8.372;2023-01-15T05:34:08;8.10;99.90
12434;DHT22;6281;49.038;8.372;2023-01-15T05:36:35;8.10;99.90
12434;DHT22;6281;49.038;8.372;2023-01-15T05:39:04;8.10;99.90
12434;DHT22;6281;49.038;8.372;2023-01-15T05:41:31;8.00;99.90
12434;DHT22;6281;49.038;8.372;2023-01-15T05:44:19;8.00;99.90
12434;DHT22;6281;49.038;8.372;2023-01-15T05:46:47;7.90;99.90
12434;DHT22;6281;49.038;8.372;2023-01-15T05:49:16;7.80;99.90
12434;DHT22;6281;49.038;8.372;2023-01-15T05:51:43;7.80;99.90
12434;DHT22;6281;49.038;8.372;2023-01-15T05:54:14;7.70;99.90
12434;DHT22;6281;49.038;8.372;2023-01-15T05:56:41;7.50;99.90
12434;DHT22;6281;49.038;8.372;2023-01-15T05:59:10;7.40;99.90
12434;DHT22;6281;49.038;8.372;2023-01-15T06:01:38;7.40;99.90
12434;DHT22;6281;49.038;8.372;2023-01-15T06:04:06;7.40;99.90
12434;DHT22;6281;49.038;8.372;2023-01-15T06:06:33;7.30;99.90
12434;DHT22;6281;49.038;8.372;2023-01-15T06:09:01;7.40;99.90
12434;DHT22;6281;49.038;8.372;2023-01-15T06:11:30;7.40;99.90
12434;DHT22;6281;49.038;8.372;2023-01-15T06:13:57;7.30;99.90
12434;DHT22;6281;49.038;8.372;2023-01-15T06:16:24;7.10;99.90
12434;DHT22;6281;49.038;8.372;2023-01-15T06:18:51;7.10;99.90
12434;DHT22;6281;49.038;8.372;2023-01-15T06:21:18;7.10;99.90
12434;DHT22;6281;49.038;8.372;2023-01-15T06:23:45;7.10;99.90
12434;DHT22;6281;49.038;8.372;2023-01-15T06:26:14;7.00;99.90
12434;DHT22;6281;49.038;8.372;2023-01-15T06:28:42;7.00;99.90
12434;DHT22;6281;49.038;8.372;2023-01-15T06:31:12;7.00;99.90
12434;DHT22;6281;49.038;8.372;2023-01-15T06:33:39;6.90;99.90
12434;DHT22;6281;49.038;8.372;2023-01-15T06:36:08;6.90;99.90
12434;DHT22;6281;49.038;8.372;2023-01-15T06:38:36;6.90;99.90
12434;DHT22;6281;49.038;8.372;2023-01-15T06:41:05;6.90;99.90
12434;DHT22;6281;49.038;8.372;2023-01-15T06:43:55;6.90;99.90
12434;DHT22;6281;49.038;8.372;2023-01-15T06:46:42;6.80;99.90
12434;DHT22;6281;49.038;8.372;2023-01-15T06:49:26;6.80;99.90
12434;DHT22;6281;49.038;8.372;2023-01-15T06:51:53;6.90;99.90
12434;DHT22;6281;49.038;8.372;2023-01-15T06:54:20;6.80;99.90
12434;DHT22;6281;49.038;8.372;2023-01-15T06:56:47;6.80;99.90
12434;DHT22;6281;49.038;8.372;2023-01-15T06:59:15;6.80;99.90
12434;DHT22;6281;49.038;8.372;2023-01-15T07:01:42;6.80;99.90
12434;DHT22;6281;49.038;8.372;2023-01-15T07:04:09;6.80;99.90
12434;DHT22;6281;49.038;8.372;2023-01-15T07:06:36;6.80;99.90
12434;DHT22;6281;49.038;8.372;2023-01-15T07:09:03;6.90;99.90
12434;DHT22;6281;49.038;8.372;2023-01-15T07:11:30;6.80;99.90
12434;DHT22;6281;49.038;8.372;2023-01-15T07:13:57;6.70;99.90
12434;DHT22;6281;49.038;8.372;2023-01-15T07:16:33;6.70;99.90
12434;DHT22;6281;49.038;8.372;2023-01-15T07:19:00;6.70;99.90
12434;DHT22;6281;49.038;8.372;2023-01-15T07:21:27;6.70;99.90
12434;DHT22;6281;49.038;8.372;2023-01-15T07:23:58;6.70;99.90
12434;DHT22;6281;49.038;8.372;2023-01-15T07:26:25;6.70;99.90
12434;DHT22;6281;49.038;8.372;2023-01-15T07:28:52;6.70;99.90
12434;DHT22;6281;49.038;8.372;2023-01-15T07:31:19;6.60;99.90
12434;DHT22;6281;49.038;8.372;2023-01-15T07:33:48;6.60;99.90
12434;DHT22;6281;49.038;8.372;2023-01-15T07:36:15;6.60;99.90
12434;DHT22;6281;49.038;8.372;2023-01-15T07:38:44;6.60;99.90
12434;DHT22;6281;49.038;8.372;2023-01-15T07:41:11;6.50;99.90
12434;DHT22;6281;49.038;8.372;2023-01-15T07:43:55;6.50;99.90
12434;DHT22;6281;49.038;8.372;2023-01-15T07:46:39;6.60;99.90
12434;DHT22;6281;49.038;8.372;2023-01-15T07:49:25;6.50;99.90
12434;DHT22;6281;49.038;8.372;2023-01-15T07:52:10;6.50;99.90
12434;DHT22;6281;49.038;8.372;2023-01-15T07:54:36;6.50;99.90
12434;DHT22;6281;49.038;8.372;2023-01-15T07:57:03;6.50;99.90
12434;DHT22;6281;49.038;8.372;2023-01-15T07:59:30;6.50;99.90
12434;DHT22;6281;49.038;8.372;2023-01-15T08:01:57;6.50;99.90
12434;DHT22;6281;49.038;8.372;2023-01-15T08:04:26;6.50;99.90
12434;DHT22;6281;49.038;8.372;2023-01-15T08:06:53;6.50;99.90
12434;DHT22;6281;49.038;8.372;2023-01-15T08:09:20;6.50;99.90
12434;DHT22;6281;49.038;8.372;2023-01-15T08:11:47;6.50;99.90
12434;DHT22;6281;49.038;8.372;2023-01-15T08:14:31;6.50;99.90
12434;DHT22;6281;49.038;8.372;2023-01-15T08:17:15;6.40;99.90
12434;DHT22;6281;49.038;8.372;2023-01-15T08:19:44;6.40;99.90
12434;DHT22;6281;49.038;8.372;2023-01-15T08:22:11;6.40;99.90
12434;DHT22;6281;49.038;8.372;2023-01-15T08:24:37;6.30;99.90
12434;DHT22;6281;49.038;8.372;2023-01-15T08:27:05;6.40;99.90
12434;DHT22;6281;49.038;8.372;2023-01-15T08:29:32;6.40;99.90
12434;DHT22;6281;49.038;8.372;2023-01-15T08:31:58;6.20;99.90
12434;DHT22;6281;49.038;8.372;2023-01-15T08:34:25;6.30;99.90
12434;DHT22;6281;49.038;8.372;2023-01-15T08:36:54;6.30;99.90
12434;DHT22;6281;49.038;8.372;2023-01-15T08:39:25;6.20;99.90
12434;DHT22;6281;49.038;8.372;2023-01-15T08:41:52;6.20;99.90
12434;DHT22;6281;49.038;8.372;2023-01-15T08:44:19;6.10;99.90
12434;DHT22;6281;49.038;8.372;2023-01-15T08:46:48;6.10;99.90
12434;DHT22;6281;49.038;8.372;2023-01-15T08:49:15;6.10;99.90
12434;DHT22;6281;49.038;8.372;2023-01-15T08:51:43;6.10;99.90
12434;DHT22;6281;49.038;8.372;2023-01-15T08:54:13;6.20;99.90
12434;DHT22;6281;49.038;8.372;2023-01-15T08:56:40;6.00;99.90
12434;DHT22;6281;49.038;8.372;2023-01-15T08:59:07;6.00;99.90
12434;DHT22;6281;49.038;8.372;2023-01-15T09:01:34;6.00;99.90
12434;DHT22;6281;49.038;8.372;2023-01-15T09:04:01;6.00;99.90
12434;DHT22;6281;49.038;8.372;2023-01-15T09:06:30;5.90;99.90
12434;DHT22;6281;49.038;8.372;2023-01-15T09:08:58;5.90;99.90
12434;DHT22;6281;49.038;8.372;2023-01-15T09:11:26;5.90;99.90
12434;DHT22;6281;49.038;8.372;2023-01-15T09:13:53;5.80;99.90
12434;DHT22;6281;49.038;8.372;2023-01-15T09:16:20;5.70;99.90
12434;DHT22;6281;49.038;8.372;2023-01-15T09:18:47;5.70;99.90
12434;DHT22;6281;49.038;8.372;2023-01-15T09:21:14;5.80;99.90
12434;DHT22;6281;49.038;8.372;2023-01-15T09:23:41;5.70;99.90
12434;DHT22;6281;49.038;8.372;2023-01-15T09:26:26;5.70;99.90
12434;DHT22;6281;49.038;8.372;2023-01-15T09:28:54;5.70;99.90
12434;DHT22;6281;49.038;8.372;2023-01-15T09:31:21;5.70;99.90
12434;DHT22;6281;49.038;8.372;2023-01-15T09:33:48;5.70;99.90
12434;DHT22;6281;49.038;8.372;2023-01-15T09:36:15;5.70;99.90
12434;DHT22;6281;49.038;8.372;2023-01-15T09:38:42;5.60;99.90
12434;DHT22;6281;49.038;8.372;2023-01-15T09:41:11;5.70;99.90
12434;DHT22;6281;49.038;8.372;2023-01-15T09:44:10;5.70;99.90
12434;DHT22;6281;49.038;8.372;2023-01-15T09:46:46;5.60;99.90
12434;DHT22;6281;49.038;8.372;2023-01-15T09:49:24;5.60;99.90
12434;DHT22;6281;49.038;8.372;2023-01-15T09:52:02;5.60;99.90
12434;DHT22;6281;49.038;8.372;2023-01-15T09:54:45;5.60;99.90
12434;DHT22;6281;49.038;8.372;2023-01-15T09:57:15;5.50;99.90
12434;DHT22;6281;49.038;8.372;2023-01-15T09:59:46;5.60;99.90
12434;DHT22;6281;49.038;8.372;2023-01-15T10:02:21;5.60;99.90
12434;DHT22;6281;49.038;8.372;2023-01-15T10:04:56;5.50;99.90
12434;DHT22;6281;49.038;8.372;2023-01-15T10:07:28;5.40;99.90
12434;DHT22;6281;49.038;8.372;2023-01-15T10:09:59;5.40;99.90
12434;DHT22;6281;49.038;8.372;2023-01-15T10:12:29;5.40;99.90
12434;DHT22;6281;49.038;8.372;2023-01-15T10:15:26;5.40;99.90
12434;DHT22;6281;49.038;8.372;2023-01-15T10:17:55;5.30;99.90
12434;DHT22;6281;49.038;8.372;2023-01-15T10:20:49;5.40;99.90
12434;DHT22;6281;49.038;8.372;2023-01-15T10:23:34;5.30;99.90
12434;DHT22;6281;49.038;8.372;2023-01-15T10:26:12;5.40;99.90
12434;DHT22;6281;49.038;8.372;2023-01-15T10:28:52;5.40;99.90
12434;DHT22;6281;49.038;8.372;2023-01-15T10:31:31;5.30;99.90
12434;DHT22;6281;49.038;8.372;2023-01-15T10:34:36;5.30;99.90
12434;DHT22;6281;49.038;8.372;2023-01-15T10:37:11;5.30;99.90
12434;DHT22;6281;49.038;8.372;2023-01-15T10:39:45;5.30;99.90
12434;DHT22;6281;49.038;8.372;2023-01-15T10:42:28;5.30;99.90
12434;DHT22;6281;49.038;8.372;2023-01-15T10:45:01;5.20;99.90
12434;DHT22;6281;49.038;8.372;2023-01-15T10:47:35;5.20;99.90
12434;DHT22;6281;49.038;8.372;2023-01-15T10:50:14;5.40;99.90
12434;DHT22;6281;49.038;8.372;2023-01-15T10:52:44;5.30;99.90
12434;DHT22;6281;49.038;8.372;2023-01-15T10:55:20;5.20;99.90
12434;DHT22;6281;49.038;8.372;2023-01-15T10:57:54;5.20;99.90
12434;DHT22;6281;49.038;8.372;2023-01-15T11:00:23;5.20;99.90
12434;DHT22;6281;49.038;8.372;2023-01-15T11:02:59;5.20;99.90
12434;DHT22;6281;49.038;8.372;2023-01-15T11:05:27;5.10;99.90
12434;DHT22;6281;49.038;8.372;2023-01-15T11:07:55;5.10;99.90
12434;DHT22;6281;49.038;8.372;2023-01-15T11:10:22;5.10;99.90
12434;DHT22;6281;49.038;8.372;2023-01-15T11:12:52;5.10;99.90
12434;DHT22;6281;49.038;8.372;2023-01-15T11:15:37;5.10;99.90
12434;DHT22;6281;49.038;8.372;2023-01-15T11:18:25;5.10;99.90
12434;DHT22;6281;49.038;8.372;2023-01-15T11:21:12;5.10;99.90
12434;DHT22;6281;49.038;8.372;2023-01-15T11:23:40;5.00;99.90
12434;DHT22;6281;49.038;8.372;2023-01-15T11:26:07;4.90;99.90
12434;DHT22;6281;49.038;8.372;2023-01-15T11:28:37;4.90;99.90
12434;DHT22;6281;49.038;8.372;2023-01-15T11:31:06;4.90;99.90
12434;DHT22;6281;49.038;8.372;2023-01-15T11:33:35;4.90;99.90
12434;DHT22;6281;49.038;8.372;2023-01-15T11:36:05;4.90;99.90
12434;DHT22;6281;49.038;8.372;2023-01-15T11:38:42;4.80;99.90
12434;DHT22;6281;49.038;8.372;2023-01-15T11:41:19;4.90;99.90
12434;DHT22;6281;49.038;8.372;2023-01-15T11:43:53;5.00;99.90
12434;DHT22;6281;49.038;8.372;2023-01-15T11:46:37;4.90;99.90
12434;DHT22;6281;49.038;8.372;2023-01-15T11:49:23;4.90;99.90
12434;DHT22;6281;49.038;8.372;2023-01-15T11:52:10;4.90;99.90
12434;DHT22;6281;49.038;8.372;2023-01-15T11:54:40;4.90;99.90
12434;DHT22;6281;49.038;8.372;2023-01-15T11:57:07;5.00;99.90
12434;DHT22;6281;49.038;8.372;2023-01-15T11:59:35;5.00;99.90
12434;DHT22;6281;49.038;8.372;2023-01-15T12:02:10;5.10;99.90
12434;DHT22;6281;49.038;8.372;2023-01-15T12:04:48;5.10;99.90
12434;DHT22;6281;49.038;8.372;2023-01-15T12:07:15;5.20;99.90
12434;DHT22;6281;49.038;8.372;2023-01-15T12:09:56;5.30;99.90
12434;DHT22;6281;49.038;8.372;2023-01-15T12:12:35;5.30;99.90
12434;DHT22;6281;49.038;8.372;2023-01-15T12:15:18;5.30;99.90
12434;DHT22;6281;49.038;8.372;2023-01-15T12:18:06;5.30;99.90
12434;DHT22;6281;49.038;8.372;2023-01-15T12:20:53;5.30;99.90
12434;DHT22;6281;49.038;8.372;2023-01-15T12:23:43;5.40;99.90
12434;DHT22;6281;49.038;8.372;2023-01-15T12:26:20;5.50;99.90
12434;DHT22;6281;49.038;8.372;2023-01-15T12:28:53;5.50;99.90
12434;DHT22;6281;49.038;8.372;2023-01-15T12:31:25;5.50;99.90
12434;DHT22;6281;49.038;8.372;2023-01-15T12:33:56;5.50;99.90
12434;DHT22;6281;49.038;8.372;2023-01-15T12:36:29;6.10;99.90
12434;DHT22;6281;49.038;8.372;2023-01-15T12:38:59;7.30;99.90
12434;DHT22;6281;49.038;8.372;2023-01-15T12:41:29;8.20;99.90
12434;DHT22;6281;49.038;8.372;2023-01-15T12:44:11;10.00;99.90
12434;DHT22;6281;49.038;8.372;2023-01-15T12:46:57;8.60;99.90
12434;DHT22;6281;49.038;8.372;2023-01-15T12:49:30;10.30;99.90
12434;DHT22;6281;49.038;8.372;2023-01-15T12:52:04;8.40;99.90
12434;DHT22;6281;49.038;8.372;2023-01-15T12:54:36;9.40;99.90
12434;DHT22;6281;49.038;8.372;2023-01-15T12:57:12;9.80;99.90
12434;DHT22;6281;49.038;8.372;2023-01-15T12:59:46;10.50;99.90
12434;DHT22;6281;49.038;8.372;2023-01-15T13:02:19;8.60;99.90
12434;DHT22;6281;49.038;8.372;2023-01-15T13:04:49;9.00;99.90
12434;DHT22;6281;49.038;8.372;2023-01-15T13:07:23;8.90;99.90
12434;DHT22;6281;49.038;8.372;2023-01-15T13:09:57;8.20;99.90
12434;DHT22;6281;49.038;8.372;2023-01-15T13:12:28;7.70;99.90
12434;DHT22;6281;49.038;8.372;2023-01-15T13:14:55;7.90;99.90
12434;DHT22;6281;49.038;8.372;2023-01-15T13:17:28;8.40;99.90
12434;DHT22;6281;49.038;8.372;2023-01-15T13:20:23;8.40;99.90
12434;DHT22;6281;49.038;8.372;2023-01-15T13:23:00;8.00;99.90
12434;DHT22;6281;49.038;8.372;2023-01-15T13:25:48;8.30;99.90
12434;DHT22;6281;49.038;8.372;2023-01-15T13:28:27;8.10;99.90
12434;DHT22;6281;49.038;8.372;2023-01-15T13:31:06;8.60;99.90
12434;DHT22;6281;49.038;8.372;2023-01-15T13:33:38;8.30;99.90
12434;DHT22;6281;49.038;8.372;2023-01-15T13:36:11;8.30;99.90
12434;DHT22;6281;49.038;8.372;2023-01-15T13:38:50;7.70;99.90
12434;DHT22;6281;49.038;8.372;2023-01-15T13:41:20;7.50;99.90
12434;DHT22;6281;49.038;8.372;2023-01-15T13:44:01;8.00;99.90
12434;DHT22;6281;49.038;8.372;2023-01-15T13:46:28;8.00;99.90
12434;DHT22;6281;49.038;8.372;2023-01-15T13:48:55;8.20;99.90
12434;DHT22;6281;49.038;8.372;2023-01-15T13:51:26;8.00;99.90
12434;DHT22;6281;49.038;8.372;2023-01-15T13:53:57;7.70;99.90
12434;DHT22;6281;49.038;8.372;2023-01-15T13:56:26;7.80;99.90
12434;DHT22;6281;49.038;8.372;2023-01-15T13:58:54;7.50;99.90
12434;DHT22;6281;49.038;8.372;2023-01-15T14:01:24;6.90;99.90
12434;DHT22;6281;49.038;8.372;2023-01-15T14:03:59;6.90;99.90
12434;DHT22;6281;49.038;8.372;2023-01-15T14:06:38;6.90;99.90
12434;DHT22;6281;49.038;8.372;2023-01-15T14:09:09;6.90;99.90
12434;DHT22;6281;49.038;8.372;2023-01-15T14:11:39;6.80;99.90
12434;DHT22;6281;49.038;8.372;2023-01-15T14:24:07;5.80;99.90
12434;DHT22;6281;49.038;8.372;2023-01-15T14:26:44;5.80;99.90
12434;DHT22;6281;49.038;8.372;2023-01-15T14:32:20;6.30;99.90
12434;DHT22;6281;49.038;8.372;2023-01-15T14:34:57;6.50;99.90
12434;DHT22;6281;49.038;8.372;2023-01-15T14:37:28;6.40;99.90
12434;DHT22;6281;49.038;8.372;2023-01-15T14:40:01;6.40;99.90
12434;DHT22;6281;49.038;8.372;2023-01-15T14:42:38;6.30;99.90
12434;DHT22;6281;49.038;8.372;2023-01-15T14:45:28;6.50;99.90
12434;DHT22;6281;49.038;8.372;2023-01-15T14:47:57;6.40;99.90
12434;DHT22;6281;49.038;8.372;2023-01-15T14:50:28;6.50;99.90
12434;DHT22;6281;49.038;8.372;2023-01-15T14:53:05;6.50;99.90
12434;DHT22;6281;49.038;8.372;2023-01-15T14:55:46;6.80;99.90
12434;DHT22;6281;49.038;8.372;2023-01-15T14:58:16;6.80;99.90
12434;DHT22;6281;49.038;8.372;2023-01-15T15:00:51;6.80;99.90
12434;DHT22;6281;49.038;8.372;2023-01-15T15:03:24;6.70;99.90
12434;DHT22;6281;49.038;8.372;2023-01-15T15:05:52;6.60;99.90
12434;DHT22;6281;49.038;8.372;2023-01-15T15:08:19;6.50;99.90
12434;DHT22;6281;49.038;8.372;2023-01-15T15:10:53;6.50;99.90
12434;DHT22;6281;49.038;8.372;2023-01-15T15:13:27;6.50;99.90
12434;DHT22;6281;49.038;8.372;2023-01-15T15:16:03;6.50;99.90
12434;DHT22;6281;49.038;8.372;2023-01-15T15:18:34;6.50;99.90
12434;DHT22;6281;49.038;8.372;2023-01-15T15:21:06;6.50;99.90
12434;DHT22;6281;49.038;8.372;2023-01-15T15:23:41;6.60;99.90
12434;DHT22;6281;49.038;8.372;2023-01-15T15:26:20;6.50;99.90
12434;DHT22;6281;49.038;8.372;2023-01-15T15:28:58;6.50;99.90
12434;DHT22;6281;49.038;8.372;2023-01-15T15:31:25;6.50;99.90
12434;DHT22;6281;49.038;8.372;2023-01-15T15:33:54;6.60;99.90
12434;DHT22;6281;49.038;8.372;2023-01-15T15:36:22;6.60;99.90
12434;DHT22;6281;49.038;8.372;2023-01-15T15:38:55;6.60;99.90
12434;DHT22;6281;49.038;8.372;2023-01-15T15:41:26;6.60;99.90
12434;DHT22;6281;49.038;8.372;2023-01-15T15:44:16;6.70;99.90
12434;DHT22;6281;49.038;8.372;2023-01-15T15:47:16;6.80;99.90
12434;DHT22;6281;49.038;8.372;2023-01-15T15:50:01;6.80;99.90
12434;DHT22;6281;49.038;8.372;2023-01-15T15:52:28;6.80;99.90
12434;DHT22;6281;49.038;8.372;2023-01-15T15:54:59;6.80;99.90
12434;DHT22;6281;49.038;8.372;2023-01-15T15:57:30;6.80;99.90
12434;DHT22;6281;49.038;8.372;2023-01-15T15:59:58;6.70;99.90
12434;DHT22;6281;49.038;8.372;2023-01-15T16:02:29;6.70;99.90
12434;DHT22;6281;49.038;8.372;2023-01-15T16:05:00;6.70;99.90
12434;DHT22;6281;49.038;8.372;2023-01-15T16:07:36;6.80;99.90
12434;DHT22;6281;49.038;8.372;2023-01-15T16:10:10;6.70;99.90
12434;DHT22;6281;49.038;8.372;2023-01-15T16:12:43;6.70;99.90
12434;DHT22;6281;49.038;8.372;2023-01-15T16:15:13;6.70;99.90
12434;DHT22;6281;49.038;8.372;2023-01-15T16:17:41;6.70;99.90
12434;DHT22;6281;49.038;8.372;2023-01-15T16:20:12;6.70;99.90
12434;DHT22;6281;49.038;8.372;2023-01-15T16:22:44;6.70;99.90
12434;DHT22;6281;49.038;8.372;2023-01-15T16:25:21;6.70;99.90
12434;DHT22;6281;49.038;8.372;2023-01-15T16:27:49;6.60;99.90
12434;DHT22;6281;49.038;8.372;2023-01-15T16:30:17;6.70;99.90
12434;DHT22;6281;49.038;8.372;2023-01-15T16:32:44;6.60;99.90
12434;DHT22;6281;49.038;8.372;2023-01-15T16:35:18;6.60;99.90
12434;DHT22;6281;49.038;8.372;2023-01-15T16:37:49;6.60;99.90
12434;DHT22;6281;49.038;8.372;2023-01-15T16:40:25;6.70;99.90
12434;DHT22;6281;49.038;8.372;2023-01-15T16:43:05;6.60;99.90